sensor_id;sensor_type;location;lat;lon;timestamp;P1;durP1;ratioP1;P2;durP2;ratioP2
47784;SDS011;35233;55.686;37.848;2023-12-29T00:02:11;3.78;;;2.72;;
47784;SDS011;35233;55.686;37.848;2023-12-29T00:04:37;3.88;;;2.83;;
47784;SDS011;35233;55.686;37.848;2023-12-29T00:07:02;4.30;;;2.70;;
47784;SDS011;35233;55.686;37.848;2023-12-29T00:09:28;4.38;;;2.90;;
47784;SDS011;35233;55.686;37.848;2023-12-29T00:11:54;3.88;;;2.80;;
47784;SDS011;35233;55.686;37.848;2023-12-29T00:14:19;3.92;;;2.80;;
47784;SDS011;35233;55.686;37.848;2023-12-29T00:16:45;3.65;;;2.72;;
47784;SDS011;35233;55.686;37.848;2023-12-29T00:19:11;3.30;;;2.42;;
47784;SDS011;35233;55.686;37.848;2023-12-29T00:21:37;3.97;;;2.80;;
47784;SDS011;35233;55.686;37.848;2023-12-29T00:24:06;3.75;;;2.65;;
47784;SDS011;35233;55.686;37.848;2023-12-29T00:26:31;4.10;;;3.00;;
47784;SDS011;35233;55.686;37.848;2023-12-29T00:28:57;3.25;;;2.67;;
47784;SDS011;35233;55.686;37.848;2023-12-29T00:31:23;3.88;;;2.70;;
47784;SDS011;35233;55.686;37.848;2023-12-29T00:33:49;4.32;;;2.95;;
47784;SDS011;35233;55.686;37.848;2023-12-29T00:36:17;4.57;;;3.00;;
47784;SDS011;35233;55.686;37.848;2023-12-29T00:38:44;4.10;;;2.72;;
47784;SDS011;35233;55.686;37.848;2023-12-29T00:41:09;4.20;;;3.15;;
47784;SDS011;35233;55.686;37.848;2023-12-29T00:43:40;4.43;;;3.03;;
47784;SDS011;35233;55.686;37.848;2023-12-29T00:46:08;3.53;;;2.60;;
47784;SDS011;35233;55.686;37.848;2023-12-29T00:48:41;3.15;;;2.40;;
47784;SDS011;35233;55.686;37.848;2023-12-29T00:51:07;4.40;;;2.83;;
47784;SDS011;35233;55.686;37.848;2023-12-29T00:53:34;3.58;;;2.70;;
47784;SDS011;35233;55.686;37.848;2023-12-29T00:56:00;3.53;;;2.50;;
47784;SDS011;35233;55.686;37.848;2023-12-29T00:58:26;3.13;;;2.33;;
47784;SDS011;35233;55.686;37.848;2023-12-29T01:00:54;4.20;;;2.78;;
47784;SDS011;35233;55.686;37.848;2023-12-29T01:03:20;3.20;;;2.45;;
47784;SDS011;35233;55.686;37.848;2023-12-29T01:05:46;3.70;;;2.40;;
47784;SDS011;35233;55.686;37.848;2023-12-29T01:08:17;3.03;;;2.25;;
47784;SDS011;35233;55.686;37.848;2023-12-29T01:10:43;3.85;;;2.70;;
47784;SDS011;35233;55.686;37.848;2023-12-29T01:13:08;3.50;;;2.60;;
47784;SDS011;35233;55.686;37.848;2023-12-29T01:15:34;4.07;;;2.78;;
47784;SDS011;35233;55.686;37.848;2023-12-29T01:18:02;3.28;;;2.38;;
47784;SDS011;35233;55.686;37.848;2023-12-29T01:20:28;2.92;;;2.50;;
47784;SDS011;35233;55.686;37.848;2023-12-29T01:22:54;2.97;;;2.10;;
47784;SDS011;35233;55.686;37.848;2023-12-29T01:25:22;3.10;;;2.40;;
47784;SDS011;35233;55.686;37.848;2023-12-29T01:28:00;3.70;;;2.40;;
47784;SDS011;35233;55.686;37.848;2023-12-29T01:30:28;3.45;;;2.40;;
47784;SDS011;35233;55.686;37.848;2023-12-29T01:32:54;3.40;;;2.40;;
47784;SDS011;35233;55.686;37.848;2023-12-29T01:35:22;4.15;;;2.45;;
47784;SDS011;35233;55.686;37.848;2023-12-29T01:37:48;3.40;;;2.45;;
47784;SDS011;35233;55.686;37.848;2023-12-29T01:40:13;3.13;;;2.33;;
47784;SDS011;35233;55.686;37.848;2023-12-29T01:43:00;2.80;;;2.30;;
47784;SDS011;35233;55.686;37.848;2023-12-29T01:45:25;3.17;;;2.25;;
47784;SDS011;35233;55.686;37.848;2023-12-29T01:47:52;3.92;;;2.40;;
47784;SDS011;35233;55.686;37.848;2023-12-29T01:50:18;2.90;;;2.38;;
47784;SDS011;35233;55.686;37.848;2023-12-29T01:52:46;3.60;;;2.50;;
47784;SDS011;35233;55.686;37.848;2023-12-29T01:55:15;3.88;;;2.40;;
47784;SDS011;35233;55.686;37.848;2023-12-29T01:57:44;3.58;;;2.47;;
47784;SDS011;35233;55.686;37.848;2023-12-29T02:00:11;2.85;;;2.28;;
47784;SDS011;35233;55.686;37.848;2023-12-29T02:02:37;3.30;;;2.33;;
47784;SDS011;35233;55.686;37.848;2023-12-29T02:05:03;3.35;;;2.10;;
47784;SDS011;35233;55.686;37.848;2023-12-29T02:07:30;2.65;;;2.05;;
47784;SDS011;35233;55.686;37.848;2023-12-29T02:09:59;3.05;;;2.17;;
47784;SDS011;35233;55.686;37.848;2023-12-29T02:12:26;2.55;;;2.03;;
47784;SDS011;35233;55.686;37.848;2023-12-29T02:14:52;4.63;;;1.98;;
47784;SDS011;35233;55.686;37.848;2023-12-29T02:17:27;3.40;;;2.42;;
47784;SDS011;35233;55.686;37.848;2023-12-29T02:19:58;3.22;;;2.10;;
47784;SDS011;35233;55.686;37.848;2023-12-29T02:22:24;3.63;;;2.58;;
47784;SDS011;35233;55.686;37.848;2023-12-29T02:24:50;3.08;;;2.10;;
47784;SDS011;35233;55.686;37.848;2023-12-29T02:33:07;4.07;;;2.78;;
47784;SDS011;35233;55.686;37.848;2023-12-29T02:35:38;3.80;;;2.30;;
47784;SDS011;35233;55.686;37.848;2023-12-29T02:38:06;3.47;;;2.50;;
47784;SDS011;35233;55.686;37.848;2023-12-29T02:40:32;4.13;;;2.85;;
47784;SDS011;35233;55.686;37.848;2023-12-29T02:42:57;3.67;;;2.42;;
47784;SDS011;35233;55.686;37.848;2023-12-29T02:45:23;3.28;;;2.25;;
47784;SDS011;35233;55.686;37.848;2023-12-29T02:47:52;3.53;;;2.30;;
47784;SDS011;35233;55.686;37.848;2023-12-29T02:50:24;2.92;;;2.33;;
47784;SDS011;35233;55.686;37.848;2023-12-29T02:52:50;2.85;;;2.10;;
47784;SDS011;35233;55.686;37.848;2023-12-29T02:55:15;3.10;;;2.25;;
47784;SDS011;35233;55.686;37.848;2023-12-29T02:57:41;4.00;;;2.42;;
47784;SDS011;35233;55.686;37.848;2023-12-29T03:00:07;3.95;;;2.33;;
47784;SDS011;35233;55.686;37.848;2023-12-29T03:02:33;2.95;;;2.25;;
47784;SDS011;35233;55.686;37.848;2023-12-29T03:04:59;3.28;;;2.40;;
47784;SDS011;35233;55.686;37.848;2023-12-29T03:07:25;3.08;;;2.30;;
47784;SDS011;35233;55.686;37.848;2023-12-29T03:09:53;3.95;;;2.20;;
47784;SDS011;35233;55.686;37.848;2023-12-29T03:12:18;3.78;;;2.63;;
47784;SDS011;35233;55.686;37.848;2023-12-29T03:14:44;3.63;;;2.40;;
47784;SDS011;35233;55.686;37.848;2023-12-29T03:17:12;5.15;;;2.78;;
47784;SDS011;35233;55.686;37.848;2023-12-29T03:19:37;3.70;;;2.50;;
47784;SDS011;35233;55.686;37.848;2023-12-29T03:22:03;3.42;;;2.50;;
47784;SDS011;35233;55.686;37.848;2023-12-29T03:24:29;3.67;;;2.50;;
47784;SDS011;35233;55.686;37.848;2023-12-29T03:26:55;3.67;;;2.78;;
47784;SDS011;35233;55.686;37.848;2023-12-29T03:29:20;3.92;;;2.80;;
47784;SDS011;35233;55.686;37.848;2023-12-29T03:31:46;4.43;;;2.90;;
47784;SDS011;35233;55.686;37.848;2023-12-29T03:34:12;3.42;;;2.50;;
47784;SDS011;35233;55.686;37.848;2023-12-29T03:36:37;4.63;;;2.92;;
47784;SDS011;35233;55.686;37.848;2023-12-29T03:39:03;3.63;;;2.60;;
47784;SDS011;35233;55.686;37.848;2023-12-29T03:41:28;3.92;;;2.60;;
47784;SDS011;35233;55.686;37.848;2023-12-29T03:43:54;4.82;;;2.90;;
47784;SDS011;35233;55.686;37.848;2023-12-29T03:46:21;4.63;;;2.90;;
47784;SDS011;35233;55.686;37.848;2023-12-29T03:48:48;4.32;;;2.70;;
47784;SDS011;35233;55.686;37.848;2023-12-29T03:51:14;4.78;;;3.15;;
47784;SDS011;35233;55.686;37.848;2023-12-29T03:53:40;4.15;;;2.47;;
47784;SDS011;35233;55.686;37.848;2023-12-29T03:56:13;4.25;;;2.92;;
47784;SDS011;35233;55.686;37.848;2023-12-29T03:58:44;4.13;;;2.85;;
47784;SDS011;35233;55.686;37.848;2023-12-29T04:01:10;4.15;;;2.63;;
47784;SDS011;35233;55.686;37.848;2023-12-29T04:03:40;4.18;;;2.75;;
47784;SDS011;35233;55.686;37.848;2023-12-29T04:06:06;5.35;;;3.33;;
47784;SDS011;35233;55.686;37.848;2023-12-29T04:08:32;4.60;;;3.10;;
47784;SDS011;35233;55.686;37.848;2023-12-29T04:11:01;4.55;;;3.05;;
47784;SDS011;35233;55.686;37.848;2023-12-29T04:13:27;5.40;;;3.55;;
47784;SDS011;35233;55.686;37.848;2023-12-29T04:15:52;4.43;;;2.95;;
47784;SDS011;35233;55.686;37.848;2023-12-29T04:18:21;5.20;;;3.10;;
47784;SDS011;35233;55.686;37.848;2023-12-29T04:20:48;5.18;;;3.22;;
47784;SDS011;35233;55.686;37.848;2023-12-29T04:23:14;4.78;;;3.15;;
47784;SDS011;35233;55.686;37.848;2023-12-29T04:25:40;4.38;;;3.03;;
47784;SDS011;35233;55.686;37.848;2023-12-29T04:28:06;5.35;;;3.13;;
47784;SDS011;35233;55.686;37.848;2023-12-29T04:30:32;5.18;;;3.15;;
47784;SDS011;35233;55.686;37.848;2023-12-29T04:32:59;5.00;;;3.13;;
47784;SDS011;35233;55.686;37.848;2023-12-29T04:35:25;4.47;;;3.10;;
47784;SDS011;35233;55.686;37.848;2023-12-29T04:37:50;4.05;;;2.80;;
47784;SDS011;35233;55.686;37.848;2023-12-29T04:40:16;4.55;;;3.00;;
47784;SDS011;35233;55.686;37.848;2023-12-29T04:42:42;6.30;;;3.10;;
47784;SDS011;35233;55.686;37.848;2023-12-29T04:45:08;7.65;;;3.00;;
47784;SDS011;35233;55.686;37.848;2023-12-29T04:47:41;4.95;;;3.10;;
47784;SDS011;35233;55.686;37.848;2023-12-29T04:50:21;4.75;;;2.97;;
47784;SDS011;35233;55.686;37.848;2023-12-29T04:52:52;4.80;;;2.63;;
47784;SDS011;35233;55.686;37.848;2023-12-29T04:55:17;5.82;;;3.00;;
47784;SDS011;35233;55.686;37.848;2023-12-29T04:57:43;6.25;;;2.90;;
47784;SDS011;35233;55.686;37.848;2023-12-29T05:00:12;6.53;;;3.00;;
47784;SDS011;35233;55.686;37.848;2023-12-29T05:02:40;7.10;;;3.63;;
47784;SDS011;35233;55.686;37.848;2023-12-29T05:05:06;7.82;;;2.75;;
47784;SDS011;35233;55.686;37.848;2023-12-29T05:07:32;4.63;;;2.42;;
47784;SDS011;35233;55.686;37.848;2023-12-29T05:09:58;5.38;;;2.80;;
47784;SDS011;35233;55.686;37.848;2023-12-29T05:12:24;4.45;;;2.70;;
47784;SDS011;35233;55.686;37.848;2023-12-29T05:14:49;5.47;;;2.65;;
47784;SDS011;35233;55.686;37.848;2023-12-29T05:17:15;7.53;;;3.17;;
47784;SDS011;35233;55.686;37.848;2023-12-29T05:19:40;5.75;;;3.15;;
47784;SDS011;35233;55.686;37.848;2023-12-29T05:22:06;5.55;;;2.85;;
47784;SDS011;35233;55.686;37.848;2023-12-29T05:24:31;4.43;;;2.78;;
47784;SDS011;35233;55.686;37.848;2023-12-29T05:26:57;7.28;;;3.05;;
47784;SDS011;35233;55.686;37.848;2023-12-29T05:29:23;5.20;;;3.03;;
47784;SDS011;35233;55.686;37.848;2023-12-29T05:31:48;5.18;;;3.00;;
47784;SDS011;35233;55.686;37.848;2023-12-29T05:34:14;4.78;;;3.30;;
47784;SDS011;35233;55.686;37.848;2023-12-29T05:36:39;6.68;;;3.80;;
47784;SDS011;35233;55.686;37.848;2023-12-29T05:39:06;6.35;;;3.30;;
47784;SDS011;35233;55.686;37.848;2023-12-29T05:41:31;9.23;;;3.88;;
47784;SDS011;35233;55.686;37.848;2023-12-29T05:43:57;6.13;;;3.55;;
47784;SDS011;35233;55.686;37.848;2023-12-29T05:46:23;5.50;;;4.00;;
47784;SDS011;35233;55.686;37.848;2023-12-29T05:48:49;8.68;;;4.40;;
47784;SDS011;35233;55.686;37.848;2023-12-29T05:51:17;5.78;;;4.18;;
47784;SDS011;35233;55.686;37.848;2023-12-29T05:53:42;6.53;;;4.20;;
47784;SDS011;35233;55.686;37.848;2023-12-29T05:56:14;7.18;;;4.63;;
47784;SDS011;35233;55.686;37.848;2023-12-29T05:58:40;8.68;;;5.00;;
47784;SDS011;35233;55.686;37.848;2023-12-29T06:01:09;6.97;;;4.88;;
47784;SDS011;35233;55.686;37.848;2023-12-29T06:03:35;7.22;;;5.03;;
47784;SDS011;35233;55.686;37.848;2023-12-29T06:06:00;7.75;;;5.47;;
47784;SDS011;35233;55.686;37.848;2023-12-29T06:08:26;8.57;;;5.07;;
47784;SDS011;35233;55.686;37.848;2023-12-29T06:10:52;9.75;;;5.80;;
47784;SDS011;35233;55.686;37.848;2023-12-29T06:13:18;9.52;;;6.18;;
47784;SDS011;35233;55.686;37.848;2023-12-29T06:15:43;8.77;;;5.90;;
47784;SDS011;35233;55.686;37.848;2023-12-29T06:18:09;8.50;;;5.95;;
47784;SDS011;35233;55.686;37.848;2023-12-29T06:20:34;9.75;;;6.22;;
47784;SDS011;35233;55.686;37.848;2023-12-29T06:23:00;12.75;;;6.65;;
47784;SDS011;35233;55.686;37.848;2023-12-29T06:25:26;8.70;;;5.93;;
47784;SDS011;35233;55.686;37.848;2023-12-29T06:27:51;8.77;;;6.20;;
47784;SDS011;35233;55.686;37.848;2023-12-29T06:30:24;9.43;;;6.20;;
47784;SDS011;35233;55.686;37.848;2023-12-29T06:32:49;9.77;;;5.95;;
47784;SDS011;35233;55.686;37.848;2023-12-29T06:35:17;11.25;;;6.88;;
47784;SDS011;35233;55.686;37.848;2023-12-29T06:37:42;9.95;;;6.70;;
47784;SDS011;35233;55.686;37.848;2023-12-29T06:40:08;9.15;;;6.50;;
47784;SDS011;35233;55.686;37.848;2023-12-29T06:42:34;10.30;;;6.88;;
47784;SDS011;35233;55.686;37.848;2023-12-29T06:45:00;9.65;;;6.85;;
47784;SDS011;35233;55.686;37.848;2023-12-29T06:47:26;10.57;;;6.88;;
47784;SDS011;35233;55.686;37.848;2023-12-29T06:49:51;9.50;;;6.60;;
47784;SDS011;35233;55.686;37.848;2023-12-29T06:52:17;9.23;;;6.88;;
47784;SDS011;35233;55.686;37.848;2023-12-29T06:54:43;9.18;;;6.55;;
47784;SDS011;35233;55.686;37.848;2023-12-29T06:57:08;11.00;;;7.13;;
47784;SDS011;35233;55.686;37.848;2023-12-29T06:59:34;9.35;;;6.93;;
47784;SDS011;35233;55.686;37.848;2023-12-29T07:02:00;9.05;;;6.20;;
47784;SDS011;35233;55.686;37.848;2023-12-29T07:04:31;11.57;;;6.97;;
47784;SDS011;35233;55.686;37.848;2023-12-29T07:07:06;10.70;;;7.15;;
47784;SDS011;35233;55.686;37.848;2023-12-29T07:09:32;10.98;;;6.90;;
47784;SDS011;35233;55.686;37.848;2023-12-29T07:11:57;10.50;;;7.40;;
47784;SDS011;35233;55.686;37.848;2023-12-29T07:14:23;11.40;;;6.78;;
47784;SDS011;35233;55.686;37.848;2023-12-29T07:16:49;9.82;;;7.00;;
47784;SDS011;35233;55.686;37.848;2023-12-29T07:19:14;9.75;;;6.72;;
47784;SDS011;35233;55.686;37.848;2023-12-29T07:21:40;11.15;;;7.32;;
47784;SDS011;35233;55.686;37.848;2023-12-29T07:24:06;13.13;;;6.95;;
47784;SDS011;35233;55.686;37.848;2023-12-29T07:26:34;10.90;;;6.95;;
47784;SDS011;35233;55.686;37.848;2023-12-29T07:29:00;11.77;;;7.47;;
47784;SDS011;35233;55.686;37.848;2023-12-29T07:31:25;9.95;;;6.93;;
47784;SDS011;35233;55.686;37.848;2023-12-29T07:33:51;11.02;;;6.97;;
47784;SDS011;35233;55.686;37.848;2023-12-29T07:36:16;8.68;;;6.50;;
47784;SDS011;35233;55.686;37.848;2023-12-29T07:38:42;9.10;;;6.65;;
47784;SDS011;35233;55.686;37.848;2023-12-29T07:41:08;9.10;;;6.53;;
47784;SDS011;35233;55.686;37.848;2023-12-29T07:43:34;10.48;;;6.80;;
47784;SDS011;35233;55.686;37.848;2023-12-29T07:46:01;8.70;;;6.22;;
47784;SDS011;35233;55.686;37.848;2023-12-29T07:48:27;10.70;;;6.80;;
47784;SDS011;35233;55.686;37.848;2023-12-29T07:50:52;9.60;;;6.13;;
47784;SDS011;35233;55.686;37.848;2023-12-29T07:53:18;8.88;;;6.25;;
47784;SDS011;35233;55.686;37.848;2023-12-29T07:55:44;11.52;;;6.90;;
47784;SDS011;35233;55.686;37.848;2023-12-29T07:58:11;9.10;;;6.20;;
47784;SDS011;35233;55.686;37.848;2023-12-29T08:00:37;8.52;;;6.50;;
47784;SDS011;35233;55.686;37.848;2023-12-29T08:03:03;9.65;;;6.30;;
47784;SDS011;35233;55.686;37.848;2023-12-29T08:05:29;8.10;;;6.18;;
47784;SDS011;35233;55.686;37.848;2023-12-29T08:07:55;8.60;;;6.13;;
47784;SDS011;35233;55.686;37.848;2023-12-29T08:10:21;9.00;;;6.28;;
47784;SDS011;35233;55.686;37.848;2023-12-29T08:12:46;9.98;;;6.10;;
47784;SDS011;35233;55.686;37.848;2023-12-29T08:15:12;8.15;;;5.97;;
47784;SDS011;35233;55.686;37.848;2023-12-29T08:17:37;7.10;;;5.32;;
47784;SDS011;35233;55.686;37.848;2023-12-29T08:20:03;9.02;;;5.45;;
47784;SDS011;35233;55.686;37.848;2023-12-29T08:22:30;8.32;;;5.30;;
47784;SDS011;35233;55.686;37.848;2023-12-29T08:24:57;7.88;;;5.20;;
47784;SDS011;35233;55.686;37.848;2023-12-29T08:27:23;8.60;;;6.03;;
47784;SDS011;35233;55.686;37.848;2023-12-29T08:29:51;8.80;;;5.43;;
47784;SDS011;35233;55.686;37.848;2023-12-29T08:32:16;7.15;;;5.20;;
47784;SDS011;35233;55.686;37.848;2023-12-29T08:34:42;8.07;;;5.53;;
47784;SDS011;35233;55.686;37.848;2023-12-29T08:37:08;9.35;;;5.63;;
47784;SDS011;35233;55.686;37.848;2023-12-29T08:39:33;8.13;;;5.05;;
47784;SDS011;35233;55.686;37.848;2023-12-29T08:41:59;9.00;;;5.47;;
47784;SDS011;35233;55.686;37.848;2023-12-29T08:44:24;8.90;;;5.15;;
47784;SDS011;35233;55.686;37.848;2023-12-29T08:46:50;7.20;;;5.35;;
47784;SDS011;35233;55.686;37.848;2023-12-29T08:49:16;9.70;;;5.40;;
47784;SDS011;35233;55.686;37.848;2023-12-29T08:51:42;8.80;;;5.45;;
47784;SDS011;35233;55.686;37.848;2023-12-29T08:54:08;7.90;;;5.72;;
47784;SDS011;35233;55.686;37.848;2023-12-29T08:56:34;7.75;;;5.47;;
47784;SDS011;35233;55.686;37.848;2023-12-29T08:59:17;9.23;;;5.60;;
47784;SDS011;35233;55.686;37.848;2023-12-29T09:01:43;7.82;;;5.70;;
47784;SDS011;35233;55.686;37.848;2023-12-29T09:04:08;8.52;;;6.07;;
47784;SDS011;35233;55.686;37.848;2023-12-29T09:06:34;7.93;;;5.53;;
47784;SDS011;35233;55.686;37.848;2023-12-29T09:09:00;8.45;;;5.95;;
47784;SDS011;35233;55.686;37.848;2023-12-29T09:11:25;9.13;;;5.97;;
47784;SDS011;35233;55.686;37.848;2023-12-29T09:13:52;8.52;;;5.82;;
47784;SDS011;35233;55.686;37.848;2023-12-29T09:16:17;9.57;;;6.32;;
47784;SDS011;35233;55.686;37.848;2023-12-29T09:18:43;9.20;;;5.90;;
47784;SDS011;35233;55.686;37.848;2023-12-29T09:21:09;8.75;;;6.03;;
47784;SDS011;35233;55.686;37.848;2023-12-29T09:23:34;7.95;;;5.50;;
47784;SDS011;35233;55.686;37.848;2023-12-29T09:26:02;9.80;;;5.60;;
47784;SDS011;35233;55.686;37.848;2023-12-29T09:28:28;8.70;;;5.47;;
47784;SDS011;35233;55.686;37.848;2023-12-29T09:30:54;8.73;;;5.40;;
47784;SDS011;35233;55.686;37.848;2023-12-29T09:33:19;8.90;;;5.50;;
47784;SDS011;35233;55.686;37.848;2023-12-29T09:35:45;8.45;;;5.18;;
47784;SDS011;35233;55.686;37.848;2023-12-29T09:38:11;8.68;;;5.22;;
47784;SDS011;35233;55.686;37.848;2023-12-29T09:40:37;9.10;;;5.35;;
47784;SDS011;35233;55.686;37.848;2023-12-29T09:43:03;8.57;;;5.07;;
47784;SDS011;35233;55.686;37.848;2023-12-29T09:45:30;7.13;;;4.85;;
47784;SDS011;35233;55.686;37.848;2023-12-29T09:47:59;7.53;;;4.70;;
47784;SDS011;35233;55.686;37.848;2023-12-29T09:50:28;7.32;;;4.78;;
47784;SDS011;35233;55.686;37.848;2023-12-29T09:52:53;6.65;;;4.95;;
47784;SDS011;35233;55.686;37.848;2023-12-29T09:55:20;8.88;;;5.47;;
47784;SDS011;35233;55.686;37.848;2023-12-29T09:57:46;7.30;;;4.65;;
47784;SDS011;35233;55.686;37.848;2023-12-29T10:00:13;7.22;;;4.95;;
47784;SDS011;35233;55.686;37.848;2023-12-29T10:02:41;6.60;;;4.55;;
47784;SDS011;35233;55.686;37.848;2023-12-29T10:05:07;6.40;;;4.50;;
47784;SDS011;35233;55.686;37.848;2023-12-29T10:07:37;7.15;;;4.63;;
47784;SDS011;35233;55.686;37.848;2023-12-29T10:10:05;6.70;;;4.43;;
47784;SDS011;35233;55.686;37.848;2023-12-29T10:12:34;6.50;;;4.53;;
47784;SDS011;35233;55.686;37.848;2023-12-29T10:20:57;6.97;;;4.53;;
47784;SDS011;35233;55.686;37.848;2023-12-29T10:23:35;6.55;;;4.35;;
47784;SDS011;35233;55.686;37.848;2023-12-29T10:26:04;8.20;;;5.57;;
47784;SDS011;35233;55.686;37.848;2023-12-29T10:28:31;6.45;;;4.68;;
47784;SDS011;35233;55.686;37.848;2023-12-29T10:31:00;6.82;;;4.40;;
47784;SDS011;35233;55.686;37.848;2023-12-29T10:33:26;7.28;;;4.53;;
47784;SDS011;35233;55.686;37.848;2023-12-29T10:35:58;6.20;;;4.15;;
47784;SDS011;35233;55.686;37.848;2023-12-29T10:38:27;7.63;;;4.55;;
47784;SDS011;35233;55.686;37.848;2023-12-29T10:40:53;6.68;;;4.40;;
47784;SDS011;35233;55.686;37.848;2023-12-29T10:43:22;6.60;;;4.30;;
47784;SDS011;35233;55.686;37.848;2023-12-29T10:45:48;6.88;;;4.63;;
47784;SDS011;35233;55.686;37.848;2023-12-29T10:48:23;6.82;;;4.10;;
47784;SDS011;35233;55.686;37.848;2023-12-29T10:50:49;6.97;;;4.72;;
47784;SDS011;35233;55.686;37.848;2023-12-29T10:53:14;6.57;;;4.53;;
47784;SDS011;35233;55.686;37.848;2023-12-29T10:55:43;6.22;;;4.10;;
47784;SDS011;35233;55.686;37.848;2023-12-29T10:58:09;5.35;;;4.40;;
47784;SDS011;35233;55.686;37.848;2023-12-29T11:00:35;6.75;;;4.50;;
47784;SDS011;35233;55.686;37.848;2023-12-29T11:03:01;6.55;;;4.45;;
47784;SDS011;35233;55.686;37.848;2023-12-29T11:05:27;10.52;;;4.65;;
47784;SDS011;35233;55.686;37.848;2023-12-29T11:07:53;6.43;;;4.70;;
47784;SDS011;35233;55.686;37.848;2023-12-29T11:10:23;7.00;;;4.88;;
47784;SDS011;35233;55.686;37.848;2023-12-29T11:12:49;6.10;;;4.35;;
47784;SDS011;35233;55.686;37.848;2023-12-29T11:15:15;7.35;;;4.53;;
47784;SDS011;35233;55.686;37.848;2023-12-29T11:17:42;6.78;;;4.38;;
47784;SDS011;35233;55.686;37.848;2023-12-29T11:20:15;6.63;;;4.70;;
47784;SDS011;35233;55.686;37.848;2023-12-29T11:22:42;7.97;;;4.97;;
47784;SDS011;35233;55.686;37.848;2023-12-29T11:25:10;6.65;;;4.47;;
47784;SDS011;35233;55.686;37.848;2023-12-29T11:27:37;7.70;;;5.20;;
47784;SDS011;35233;55.686;37.848;2023-12-29T11:30:03;6.50;;;4.60;;
47784;SDS011;35233;55.686;37.848;2023-12-29T11:32:41;6.80;;;4.80;;
47784;SDS011;35233;55.686;37.848;2023-12-29T11:35:12;6.28;;;4.78;;
47784;SDS011;35233;55.686;37.848;2023-12-29T11:43:42;6.82;;;4.75;;
47784;SDS011;35233;55.686;37.848;2023-12-29T11:46:18;13.73;;;6.35;;
47784;SDS011;35233;55.686;37.848;2023-12-29T11:49:08;7.00;;;4.55;;
47784;SDS011;35233;55.686;37.848;2023-12-29T11:51:41;7.60;;;4.75;;
47784;SDS011;35233;55.686;37.848;2023-12-29T11:54:08;8.63;;;4.90;;
47784;SDS011;35233;55.686;37.848;2023-12-29T11:56:35;7.57;;;4.93;;
47784;SDS011;35233;55.686;37.848;2023-12-29T12:01:50;8.07;;;5.05;;
47784;SDS011;35233;55.686;37.848;2023-12-29T12:04:37;6.78;;;4.78;;
47784;SDS011;35233;55.686;37.848;2023-12-29T12:12:57;7.30;;;4.72;;
47784;SDS011;35233;55.686;37.848;2023-12-29T12:20:22;8.35;;;4.93;;
47784;SDS011;35233;55.686;37.848;2023-12-29T12:22:58;7.72;;;4.68;;
47784;SDS011;35233;55.686;37.848;2023-12-29T12:25:29;7.13;;;4.78;;
47784;SDS011;35233;55.686;37.848;2023-12-29T12:27:56;6.88;;;4.47;;
47784;SDS011;35233;55.686;37.848;2023-12-29T12:30:22;6.50;;;4.65;;
47784;SDS011;35233;55.686;37.848;2023-12-29T12:32:57;6.57;;;4.22;;
47784;SDS011;35233;55.686;37.848;2023-12-29T12:35:24;7.03;;;4.70;;
47784;SDS011;35233;55.686;37.848;2023-12-29T12:38:14;5.38;;;4.00;;
47784;SDS011;35233;55.686;37.848;2023-12-29T12:40:45;8.60;;;4.93;;
47784;SDS011;35233;55.686;37.848;2023-12-29T12:43:13;6.18;;;4.40;;
47784;SDS011;35233;55.686;37.848;2023-12-29T12:45:41;6.55;;;4.30;;
47784;SDS011;35233;55.686;37.848;2023-12-29T12:48:22;8.48;;;4.40;;
47784;SDS011;35233;55.686;37.848;2023-12-29T12:50:54;6.38;;;4.22;;
47784;SDS011;35233;55.686;37.848;2023-12-29T12:53:22;5.95;;;4.20;;
47784;SDS011;35233;55.686;37.848;2023-12-29T12:55:48;7.00;;;4.78;;
47784;SDS011;35233;55.686;37.848;2023-12-29T12:58:18;6.75;;;3.72;;
47784;SDS011;35233;55.686;37.848;2023-12-29T13:00:45;6.72;;;4.10;;
47784;SDS011;35233;55.686;37.848;2023-12-29T13:03:12;6.13;;;4.20;;
47784;SDS011;35233;55.686;37.848;2023-12-29T13:05:39;7.40;;;4.35;;
47784;SDS011;35233;55.686;37.848;2023-12-29T13:08:05;6.22;;;4.60;;
47784;SDS011;35233;55.686;37.848;2023-12-29T13:10:31;6.20;;;4.32;;
47784;SDS011;35233;55.686;37.848;2023-12-29T13:12:57;6.15;;;4.10;;
47784;SDS011;35233;55.686;37.848;2023-12-29T13:15:23;4.97;;;3.97;;
47784;SDS011;35233;55.686;37.848;2023-12-29T13:17:52;6.35;;;3.88;;
47784;SDS011;35233;55.686;37.848;2023-12-29T13:20:18;7.72;;;4.22;;
47784;SDS011;35233;55.686;37.848;2023-12-29T13:22:46;5.85;;;4.07;;
47784;SDS011;35233;55.686;37.848;2023-12-29T13:25:18;5.75;;;3.67;;
47784;SDS011;35233;55.686;37.848;2023-12-29T13:30:15;7.07;;;4.03;;
47784;SDS011;35233;55.686;37.848;2023-12-29T13:32:43;5.75;;;3.75;;
47784;SDS011;35233;55.686;37.848;2023-12-29T13:43:07;5.43;;;3.92;;
47784;SDS011;35233;55.686;37.848;2023-12-29T13:45:35;6.35;;;3.70;;
47784;SDS011;35233;55.686;37.848;2023-12-29T13:48:03;5.40;;;3.30;;
47784;SDS011;35233;55.686;37.848;2023-12-29T13:50:31;5.88;;;3.67;;
47784;SDS011;35233;55.686;37.848;2023-12-29T13:52:57;6.10;;;3.53;;
47784;SDS011;35233;55.686;37.848;2023-12-29T13:55:23;5.38;;;3.50;;
47784;SDS011;35233;55.686;37.848;2023-12-29T13:57:50;6.05;;;3.40;;
47784;SDS011;35233;55.686;37.848;2023-12-29T14:00:23;6.20;;;3.80;;
47784;SDS011;35233;55.686;37.848;2023-12-29T14:08:06;5.00;;;3.40;;
47784;SDS011;35233;55.686;37.848;2023-12-29T14:13:45;5.47;;;3.85;;
47784;SDS011;35233;55.686;37.848;2023-12-29T14:16:13;5.22;;;3.67;;
47784;SDS011;35233;55.686;37.848;2023-12-29T14:21:20;4.88;;;3.47;;
47784;SDS011;35233;55.686;37.848;2023-12-29T14:23:59;4.47;;;3.23;;
47784;SDS011;35233;55.686;37.848;2023-12-29T14:26:31;5.57;;;3.70;;
47784;SDS011;35233;55.686;37.848;2023-12-29T14:29:01;5.20;;;3.35;;
47784;SDS011;35233;55.686;37.848;2023-12-29T14:31:27;5.68;;;3.50;;
47784;SDS011;35233;55.686;37.848;2023-12-29T14:33:53;5.30;;;3.42;;
47784;SDS011;35233;55.686;37.848;2023-12-29T14:36:19;6.45;;;3.50;;
47784;SDS011;35233;55.686;37.848;2023-12-29T14:38:45;5.43;;;3.38;;
47784;SDS011;35233;55.686;37.848;2023-12-29T14:41:10;5.03;;;3.85;;
47784;SDS011;35233;55.686;37.848;2023-12-29T14:43:36;5.78;;;3.63;;
47784;SDS011;35233;55.686;37.848;2023-12-29T14:46:02;5.20;;;3.50;;
47784;SDS011;35233;55.686;37.848;2023-12-29T14:48:28;5.05;;;3.55;;
47784;SDS011;35233;55.686;37.848;2023-12-29T14:50:54;5.82;;;3.80;;
47784;SDS011;35233;55.686;37.848;2023-12-29T14:53:20;4.90;;;3.30;;
47784;SDS011;35233;55.686;37.848;2023-12-29T14:55:46;5.72;;;3.65;;
47784;SDS011;35233;55.686;37.848;2023-12-29T14:58:11;5.63;;;3.60;;
47784;SDS011;35233;55.686;37.848;2023-12-29T15:00:40;4.72;;;3.50;;
47784;SDS011;35233;55.686;37.848;2023-12-29T15:03:11;5.60;;;3.60;;
47784;SDS011;35233;55.686;37.848;2023-12-29T15:05:37;5.43;;;3.65;;
47784;SDS011;35233;55.686;37.848;2023-12-29T15:08:03;6.70;;;4.18;;
47784;SDS011;35233;55.686;37.848;2023-12-29T15:10:29;6.25;;;3.90;;
47784;SDS011;35233;55.686;37.848;2023-12-29T15:12:54;6.00;;;3.60;;
47784;SDS011;35233;55.686;37.848;2023-12-29T15:15:20;5.45;;;3.85;;
47784;SDS011;35233;55.686;37.848;2023-12-29T15:17:46;6.38;;;4.00;;
47784;SDS011;35233;55.686;37.848;2023-12-29T15:20:11;6.25;;;4.20;;
47784;SDS011;35233;55.686;37.848;2023-12-29T15:22:37;6.28;;;4.30;;
47784;SDS011;35233;55.686;37.848;2023-12-29T15:25:02;5.50;;;3.60;;
47784;SDS011;35233;55.686;37.848;2023-12-29T15:27:28;6.47;;;4.00;;